Time;durP1;ratioP1;P1;durP2;ratioP2;P2;SDS_P1;SDS_P2;PMS_P1;PMS_P2;Temp;Humidity;BMP_temperature;BMP_pressure;BME280_temperature;BME280_humidity;BME280_pressure;Samples;Min_cycle;Max_cycle;Signal;HPM_P1;HPM_P2
2023/05/31 00:00:42;;;;;;;9.70;2.70;;;;;;;12.80;49.04;96383.63;2098107;28;20040;-60
2023/05/31 00:01:43;;;;;;;7.90;2.22;;;;;;;12.82;48.87;96396.59;2097917;28;20048;-59
2023/05/31 00:02:44;;;;;;;10.00;2.53;;;;;;;12.84;49.08;96387.78;2097765;28;20061;-60
2023/05/31 00:03:45;;;;;;;5.20;2.35;;;;;;;12.78;48.87;96388.09;2097241;28;20102;-59
2023/05/31 00:04:46;;;;;;;7.05;2.65;;;;;;;12.78;48.65;96388.09;2097696;28;20063;-59
2023/05/31 00:05:47;;;;;;;5.30;2.50;;;;;;;12.76;48.96;96387.31;2097689;28;20495;-60
2023/05/31 00:06:49;;;;;;;7.57;3.17;;;;;;;12.74;48.28;96391.75;2097171;28;20063;-59
2023/05/31 00:07:50;;;;;;;6.38;2.22;;;;;;;12.75;48.01;96390.81;2097975;28;20047;-59
2023/05/31 00:08:51;;;;;;;6.82;2.67;;;;;;;12.72;48.31;96390.97;2098937;28;20052;-59
2023/05/31 00:09:52;;;;;;;8.90;2.92;;;;;;;12.69;49.01;96389.38;2099362;28;20056;-60
2023/05/31 00:10:53;;;;;;;5.65;2.30;;;;;;;12.65;48.53;96384.41;2098882;28;20487;-59
2023/05/31 00:11:54;;;;;;;5.70;2.58;;;;;;;12.66;48.89;96380.88;2099168;28;20045;-57
2023/05/31 00:12:55;;;;;;;4.40;2.22;;;;;;;12.67;48.85;96387.75;2099221;28;20052;-59
2023/05/31 00:13:56;;;;;;;5.45;2.17;;;;;;;12.64;48.71;96390.50;2099718;28;20453;-59
2023/05/31 00:14:57;;;;;;;5.38;2.67;;;;;;;12.61;48.73;96396.72;2099364;28;20048;-62
2023/05/31 00:15:58;;;;;;;6.78;2.38;;;;;;;12.55;48.71;96387.44;2102223;28;20060;-62
2023/05/31 00:17:00;;;;;;;6.88;2.60;;;;;;;12.50;49.04;96391.19;2098874;28;20051;-62
2023/05/31 00:18:01;;;;;;;6.95;2.30;;;;;;;12.48;48.83;96391.28;2098798;28;20055;-62
2023/05/31 00:19:02;;;;;;;6.10;2.83;;;;;;;12.45;48.63;96394.00;2098984;28;20392;-62
2023/05/31 00:20:03;;;;;;;6.38;2.35;;;;;;;12.42;49.53;96388.97;2098810;28;20052;-62
2023/05/31 00:21:04;;;;;;;8.20;2.78;;;;;;;12.27;48.92;96372.31;2098931;28;20045;-62
2023/05/31 00:22:05;;;;;;;9.13;2.53;;;;;;;12.35;49.54;96388.41;2098669;28;20044;-62
2023/05/31 00:23:07;;;;;;;5.03;2.67;;;;;;;12.29;50.16;96387.84;2098816;28;20476;-62
2023/05/31 00:24:08;;;;;;;5.97;2.45;;;;;;;12.19;50.25;96377.06;2099447;28;20044;-62
2023/05/31 00:25:09;;;;;;;5.53;2.40;;;;;;;12.27;49.33;96392.28;2098943;28;20048;-62
2023/05/31 00:26:10;;;;;;;8.32;2.47;;;;;;;12.28;49.00;96396.59;2099167;28;20049;-62
2023/05/31 00:27:12;;;;;;;7.35;2.42;;;;;;;12.18;49.09;96379.72;2090440;28;20037;-62
2023/05/31 00:28:14;;;;;;;7.90;2.35;;;;;;;12.21;50.32;96400.41;2082292;28;20045;-62
2023/05/31 00:29:15;;;;;;;6.40;2.33;;;;;;;12.13;50.03;96396.41;2089969;28;20180;-62
2023/05/31 00:30:16;;;;;;;5.63;2.50;;;;;;;12.19;49.10;96397.00;2099586;28;20464;-62
2023/05/31 00:31:17;;;;;;;6.70;2.72;;;;;;;12.14;50.03;96398.09;2089825;28;20088;-62
2023/05/31 00:32:18;;;;;;;9.00;2.30;;;;;;;12.11;49.38;96398.25;2089920;28;20062;-62
2023/05/31 00:33:19;;;;;;;6.72;2.15;;;;;;;12.06;50.25;96392.41;2089948;28;20057;-62
2023/05/31 00:34:21;;;;;;;3.90;1.88;;;;;;;12.07;50.21;96394.06;2090195;28;20449;-62
2023/05/31 00:35:22;;;;;;;7.75;3.05;;;;;;;12.08;49.08;96400.13;2098833;28;20052;-62
2023/05/31 00:36:23;;;;;;;7.97;2.28;;;;;;;12.07;49.29;96394.06;2090607;28;20047;-62
2023/05/31 00:37:24;;;;;;;10.32;2.67;;;;;;;12.04;49.52;96402.03;2082334;28;20439;-62
2023/05/31 00:38:27;;;;;;;6.03;2.55;;;;;;;12.02;49.68;96405.63;2090332;28;20056;-60
2023/05/31 00:39:28;;;;;;;8.43;2.50;;;;;;;12.04;49.46;96409.00;2098649;28;20055;-62
2023/05/31 00:40:29;;;;;;;5.32;2.65;;;;;;;11.99;49.97;96398.81;2099392;28;20507;-62
2023/05/31 00:41:30;;;;;;;6.75;2.38;;;;;;;11.97;49.10;96402.38;2098689;28;20120;-62
2023/05/31 00:42:32;;;;;;;7.55;2.30;;;;;;;11.95;50.26;96405.06;2099396;28;20059;-62
2023/05/31 00:43:33;;;;;;;4.90;2.30;;;;;;;11.95;50.52;96410.28;2098663;28;20075;-62
2023/05/31 00:44:35;;;;;;;6.97;2.55;;;;;;;11.98;49.03;96410.13;2098512;28;20068;-62
2023/05/31 00:45:36;;;;;;;5.05;2.30;;;;;;;11.95;49.83;96404.22;2099199;28;20053;-62
2023/05/31 00:46:38;;;;;;;6.60;2.70;;;;;;;11.90;50.24;96409.66;2090270;28;20044;-62
2023/05/31 00:47:39;;;;;;;6.00;2.50;;;;;;;11.95;50.06;96405.06;2090143;28;20470;-61
2023/05/31 00:48:42;;;;;;;4.63;2.28;;;;;;;11.94;50.05;96411.19;2089856;28;20059;-62
2023/05/31 00:49:43;;;;;;;7.32;2.72;;;;;;;11.97;49.74;96407.59;2090688;28;20388;-62
2023/05/31 00:50:44;;;;;;;4.28;2.10;;;;;;;11.91;49.87;96403.50;2081928;28;20053;-62
2023/05/31 00:51:45;;;;;;;4.38;1.80;;;;;;;11.94;49.88;96405.97;2074040;28;20045;-62
2023/05/31 00:52:47;;;;;;;4.78;2.53;;;;;;;11.96;49.90;96405.91;2090649;28;20053;-62
2023/05/31 00:53:49;;;;;;;8.77;2.50;;;;;;;11.97;49.59;96408.44;2082013;28;20076;-62
2023/05/31 00:54:50;;;;;;;6.97;2.58;;;;;;;11.94;48.70;96408.56;2090388;28;20049;-61
2023/05/31 00:55:52;;;;;;;5.88;2.42;;;;;;;11.89;49.53;96406.22;2098517;28;20056;-61
2023/05/31 00:56:53;;;;;;;6.43;2.50;;;;;;;11.84;49.85;96402.94;2089702;28;20056;-61
2023/05/31 00:57:54;;;;;;;5.90;2.28;;;;;;;11.88;49.32;96406.25;2081655;28;20045;-61
2023/05/31 00:58:56;;;;;;;4.68;2.40;;;;;;;11.87;49.06;96400.22;2082120;28;20072;-61
2023/05/31 00:59:57;;;;;;;7.82;2.42;;;;;;;11.83;48.99;96401.22;2082098;28;20049;-61
2023/05/31 01:00:58;;;;;;;8.18;2.22;;;;;;;11.80;49.23;96393.56;2090318;28;20472;-61
2023/05/31 01:01:59;;;;;;;5.55;2.25;;;;;;;11.69;49.80;96385.41;2099252;28;20052;-61
2023/05/31 01:03:02;;;;;;;7.97;2.40;;;;;;;11.78;50.66;96394.56;2081646;28;20057;-61
2023/05/31 01:04:03;;;;;;;6.88;2.25;;;;;;;11.72;50.15;96400.88;2082046;28;20057;-61
2023/05/31 01:05:05;;;;;;;5.05;2.55;;;;;;;11.66;49.74;96396.81;2081776;28;20050;-61
2023/05/31 01:06:07;;;;;;;6.72;2.60;;;;;;;11.62;50.24;96402.19;2073398;28;20054;-61
2023/05/31 01:07:09;;;;;;;9.52;2.67;;;;;;;11.70;49.75;96394.91;2089953;28;20044;-61
2023/05/31 01:08:10;;;;;;;5.97;2.30;;;;;;;11.65;50.46;96400.31;2099195;28;20431;-61
2023/05/31 01:09:11;;;;;;;6.88;2.55;;;;;;;11.57;51.07;96409.38;2098391;28;20056;-61
2023/05/31 01:10:13;;;;;;;5.40;2.38;;;;;;;11.53;50.85;96395.66;2098384;28;20060;-61
2023/05/31 01:11:21;;;;;;;7.50;2.95;;;;;;;11.52;51.32;96407.00;2089849;28;20159;-61
2023/05/31 01:12:42;;;;;;;6.78;2.78;;;;;;;11.46;51.41;96399.44;2083020;28;20033;-61
2023/05/31 01:14:09;;;;;;;8.50;2.40;;;;;;;11.41;51.71;96402.25;2084711;28;20060;-61
2023/05/31 01:15:17;;;;;;;6.82;2.20;;;;;;;11.36;51.11;96401.63;2085483;28;20064;-61
2023/05/31 01:16:31;;;;;;;5.25;2.42;;;;;;;11.44;51.15;96393.44;2090823;28;20412;-61
2023/05/31 01:17:38;;;;;;;6.47;2.90;;;;;;;11.34;50.86;96387.84;2090486;28;20041;-61
2023/05/31 01:18:46;;;;;;;6.10;2.40;;;;;;;11.38;51.48;96398.94;2090472;28;20056;-61
2023/05/31 01:19:54;;;;;;;4.78;2.08;;;;;;;11.29;51.76;96388.94;2098448;28;20044;-62
2023/05/31 01:20:57;;;;;;;7.97;2.80;;;;;;;11.23;51.61;96390.91;2089437;28;20037;-62
2023/05/31 01:22:20;;;;;;;6.72;2.28;;;;;;;11.21;50.99;96399.69;2065556;28;20050;-62
2023/05/31 01:24:00;;;;;;;4.82;2.30;;;;;;;11.19;51.28;96386.72;2083655;28;20059;-62
2023/05/31 01:25:31;;;;;;;5.30;2.38;;;;;;;11.16;52.50;96397.28;2089943;28;20049;-62
2023/05/31 01:26:35;;;;;;;8.27;2.33;;;;;;;11.13;51.64;96396.56;2085077;28;20053;-62
2023/05/31 01:27:36;;;;;;;3.83;2.15;;;;;;;11.12;51.26;96384.47;2090015;28;20148;-62
2023/05/31 01:28:38;;;;;;;7.13;2.78;;;;;;;11.14;51.30;96393.03;2089994;28;20464;-62
2023/05/31 01:29:39;;;;;;;4.63;2.20;;;;;;;11.17;51.42;96393.78;2081880;28;20524;-62
2023/05/31 01:30:40;;;;;;;7.32;2.60;;;;;;;11.11;51.42;96390.59;2065239;28;20491;-62
2023/05/31 01:31:41;;;;;;;5.07;2.40;;;;;;;10.98;51.64;96379.84;2073114;28;20065;-62
2023/05/31 01:32:42;;;;;;;6.43;2.20;;;;;;;10.99;51.40;96391.97;2090231;28;20481;-62
2023/05/31 01:33:43;;;;;;;7.85;2.63;;;;;;;10.93;51.94;96400.00;2081776;28;20041;-62
2023/05/31 01:34:45;;;;;;;7.40;2.80;;;;;;;10.80;51.58;96374.56;2065581;28;20066;-62
2023/05/31 01:35:46;;;;;;;4.60;2.25;;;;;;;10.91;51.70;96391.44;2073491;28;20062;-62
2023/05/31 01:36:47;;;;;;;7.45;2.30;;;;;;;10.93;51.68;96392.19;2088813;28;20060;-62
2023/05/31 01:37:48;;;;;;;5.15;2.05;;;;;;;10.96;50.98;96390.34;2098527;28;20378;-62
2023/05/31 01:38:49;;;;;;;5.25;2.25;;;;;;;11.03;50.81;96389.16;2098137;28;20463;-62
2023/05/31 01:39:52;;;;;;;6.03;2.20;;;;;;;11.11;50.14;96391.41;2090302;28;20040;-62
2023/05/31 01:40:53;;;;;;;8.55;2.72;;;;;;;11.20;50.31;96391.03;2081897;28;20052;-62
2023/05/31 01:41:54;;;;;;;7.78;2.22;;;;;;;11.16;50.38;96384.28;2073500;28;20052;-62
2023/05/31 01:42:55;;;;;;;5.95;2.80;;;;;;;11.17;50.28;96391.19;2064880;28;20073;-62
2023/05/31 01:43:56;;;;;;;5.57;2.38;;;;;;;11.08;50.91;96386.34;2065582;28;20502;-62
2023/05/31 01:44:58;;;;;;;4.57;2.30;;;;;;;11.03;50.99;96390.91;2064956;28;20057;-62
2023/05/31 01:45:59;;;;;;;4.68;2.13;;;;;;;10.96;50.91;96387.75;2057507;28;20047;-62
2023/05/31 01:47:00;;;;;;;6.07;1.95;;;;;;;10.96;51.75;96390.34;2073329;28;20053;-62
2023/05/31 01:48:04;;;;;;;5.95;2.33;;;;;;;10.98;50.87;96383.28;2073602;28;20049;-62
2023/05/31 01:49:05;;;;;;;5.25;2.60;;;;;;;10.82;51.06;96361.47;2065883;28;20430;-62
2023/05/31 01:50:08;;;;;;;5.22;2.50;;;;;;;10.94;50.90;96383.50;2073160;28;20057;-62
2023/05/31 01:51:10;;;;;;;4.13;2.10;;;;;;;10.77;50.90;96361.69;2081909;28;20052;-62
2023/05/31 01:52:13;;;;;;;9.98;2.67;;;;;;;10.84;51.25;96385.66;2073010;28;20058;-62
2023/05/31 01:53:14;;;;;;;4.82;2.30;;;;;;;10.76;51.30;96380.75;2081044;28;20493;-62
2023/05/31 01:54:17;;;;;;;4.80;2.33;;;;;;;10.76;51.70;96369.53;2073138;28;20524;-62
2023/05/31 01:55:18;;;;;;;5.57;2.40;;;;;;;10.84;51.16;96382.22;2081108;28;20076;-62
2023/05/31 01:56:20;;;;;;;6.40;2.30;;;;;;;10.73;50.95;96372.25;2081779;28;20058;-62
2023/05/31 01:57:22;;;;;;;6.15;2.20;;;;;;;10.76;51.60;96380.75;2097606;28;20060;-62
2023/05/31 01:58:24;;;;;;;5.57;2.45;;;;;;;10.80;51.43;96382.34;2073110;28;20433;-62
2023/05/31 01:59:25;;;;;;;7.75;2.40;;;;;;;10.80;51.18;96384.94;2073118;28;20053;-62
2023/05/31 02:00:26;;;;;;;6.03;2.38;;;;;;;10.64;51.13;96367.44;2064448;28;20062;-62
2023/05/31 02:01:28;;;;;;;5.05;2.17;;;;;;;10.68;51.72;96380.25;2065263;28;20054;-62
2023/05/31 02:02:29;;;;;;;4.78;2.25;;;;;;;10.70;51.71;96382.78;2073256;28;20054;-62
2023/05/31 02:03:30;;;;;;;6.78;2.47;;;;;;;10.57;51.70;96361.66;2073073;28;20057;-62
2023/05/31 02:04:31;;;;;;;5.68;2.22;;;;;;;10.62;51.93;96382.25;2073634;28;20057;-62
2023/05/31 02:05:32;;;;;;;5.30;2.20;;;;;;;10.49;52.03;96363.75;2081282;28;20191;-62
2023/05/31 02:06:37;;;;;;;8.00;2.78;;;;;;;10.54;52.09;96380.81;2089319;28;20072;-62
2023/05/31 02:07:41;;;;;;;3.72;2.10;;;;;;;10.47;52.89;96368.16;2080915;28;20054;-62
2023/05/31 02:08:42;;;;;;;5.22;2.40;;;;;;;10.51;52.59;96383.53;2081899;28;20068;-62
2023/05/31 02:09:43;;;;;;;5.90;2.30;;;;;;;10.52;52.00;96393.00;2081649;28;20136;-62
2023/05/31 02:10:44;;;;;;;4.25;1.90;;;;;;;10.50;51.92;96381.00;2089797;28;20049;-62
2023/05/31 02:11:47;;;;;;;5.65;2.00;;;;;;;10.53;51.94;96386.94;2080815;28;20482;-62
2023/05/31 02:12:53;;;;;;;8.23;2.67;;;;;;;10.52;52.12;96384.38;2081365;28;20057;-62
2023/05/31 02:13:54;;;;;;;6.55;2.58;;;;;;;10.56;52.64;96391.16;2081476;28;20053;-62
2023/05/31 02:14:55;;;;;;;4.80;2.13;;;;;;;10.51;52.92;96382.72;2088994;28;20497;-62
2023/05/31 02:15:58;;;;;;;7.78;2.60;;;;;;;10.54;52.59;96388.59;2089795;28;20500;-62
2023/05/31 02:17:00;;;;;;;10.00;2.75;;;;;;;10.45;52.46;96385.53;2081343;28;20091;-62
2023/05/31 02:18:01;;;;;;;7.10;2.17;;;;;;;10.42;52.58;96390.84;2089660;28;20456;-62
2023/05/31 02:19:02;;;;;;;5.38;2.35;;;;;;;10.32;52.94;96380.00;2089142;28;20057;-62
2023/05/31 02:20:06;;;;;;;7.70;2.53;;;;;;;10.35;53.19;96383.31;2080863;28;20149;-62
2023/05/31 02:21:07;;;;;;;5.07;2.20;;;;;;;10.37;52.27;96389.31;2080707;28;20045;-62
2023/05/31 02:22:08;;;;;;;5.82;2.60;;;;;;;10.27;52.16;96374.13;2081060;28;20049;-62
2023/05/31 02:23:09;;;;;;;5.13;2.10;;;;;;;10.35;52.62;96370.34;2089660;28;20049;-62
2023/05/31 02:24:10;;;;;;;7.60;2.35;;;;;;;10.42;52.25;96388.25;2097898;28;20052;-62
2023/05/31 02:25:12;;;;;;;5.18;2.30;;;;;;;10.40;52.96;96390.94;2089567;28;20061;-62
2023/05/31 02:26:15;;;;;;;6.55;2.08;;;;;;;10.35;52.63;96385.06;2081784;28;20049;-62
2023/05/31 02:27:16;;;;;;;6.55;2.45;;;;;;;10.30;52.59;96393.03;2089298;28;20064;-62
2023/05/31 02:28:18;;;;;;;5.97;2.30;;;;;;;10.27;53.23;96392.28;2089536;28;20045;-62
2023/05/31 02:29:19;;;;;;;6.85;2.70;;;;;;;10.23;52.56;96386.34;2089242;28;20060;-62
2023/05/31 02:30:20;;;;;;;3.88;2.00;;;;;;;10.29;52.73;96391.34;2089862;28;20059;-62
2023/05/31 02:31:21;;;;;;;7.03;2.25;;;;;;;10.30;52.08;96390.44;2089243;28;20061;-62
2023/05/31 02:32:22;;;;;;;6.13;2.17;;;;;;;10.28;53.08;96391.41;2088414;28;20057;-62
2023/05/31 02:33:24;;;;;;;7.10;2.20;;;;;;;10.22;53.11;96389.03;2081024;28;20049;-62
2023/05/31 02:34:26;;;;;;;7.55;2.40;;;;;;;10.24;52.73;96388.06;2089148;28;20049;-62
2023/05/31 02:35:28;;;;;;;7.43;2.67;;;;;;;10.22;53.15;96391.63;2088897;28;20059;-62
2023/05/31 02:36:29;;;;;;;6.35;2.45;;;;;;;10.19;52.69;96390.00;2089238;28;20075;-62
2023/05/31 02:37:31;;;;;;;5.18;2.20;;;;;;;10.11;52.84;96372.13;2090184;28;20421;-62
2023/05/31 02:38:32;;;;;;;4.32;2.22;;;;;;;10.21;53.08;96384.72;2089878;28;20053;-62
2023/05/31 02:39:33;;;;;;;9.07;2.45;;;;;;;10.21;52.67;96388.19;2089421;28;20508;-62
2023/05/31 02:40:34;;;;;;;6.43;2.80;;;;;;;10.22;53.18;96383.84;2088957;28;20412;-62
2023/05/31 02:41:35;;;;;;;6.20;2.60;;;;;;;10.23;53.44;96388.13;2089771;28;20060;-62
2023/05/31 02:42:40;;;;;;;4.25;2.25;;;;;;;10.22;52.40;96383.84;2089248;28;20428;-62
2023/05/31 02:43:42;;;;;;;6.80;2.20;;;;;;;10.14;52.95;96392.75;2081598;28;20092;-62
2023/05/31 02:44:43;;;;;;;5.75;2.30;;;;;;;10.10;53.33;96387.75;2081265;28;20358;-62
2023/05/31 02:45:45;;;;;;;6.57;2.42;;;;;;;10.04;53.33;96372.41;2072642;28;20049;-62
2023/05/31 02:46:46;;;;;;;6.63;2.30;;;;;;;10.08;53.68;96384.38;2072509;28;20057;-62
2023/05/31 02:47:48;;;;;;;7.65;2.20;;;;;;;10.09;53.48;96386.91;2089010;28;20504;-62
2023/05/31 02:48:50;;;;;;;7.70;2.03;;;;;;;10.06;53.10;96389.63;2088738;28;20049;-62
2023/05/31 02:49:52;;;;;;;4.47;2.38;;;;;;;10.00;53.37;96391.63;2089433;28;20048;-62
2023/05/31 02:50:53;;;;;;;4.93;2.53;;;;;;;9.93;54.13;96391.84;2080455;28;20048;-62
2023/05/31 02:52:26;;;;;;;9.00;2.58;;;;;;;10.00;53.29;96392.47;2089070;28;20056;-62
2023/05/31 02:53:53;;;;;;;5.45;2.42;;;;;;;9.95;53.68;96389.19;2059539;28;20070;-62
2023/05/31 02:54:58;;;;;;;7.97;2.70;;;;;;;9.97;53.31;96391.72;2089445;28;20041;-62
2023/05/31 02:56:03;;;;;;;5.38;2.33;;;;;;;10.00;53.11;96395.06;2080639;28;20056;-62
2023/05/31 02:57:27;;;;;;;6.18;2.35;;;;;;;9.97;53.58;96395.19;2067393;28;20054;-62
2023/05/31 02:58:28;;;;;;;5.10;2.25;;;;;;;10.01;53.13;96395.91;2086239;28;20064;-62
2023/05/31 02:59:50;;;;;;;5.50;2.30;;;;;;;9.88;53.59;96372.16;2089037;28;20520;-62
2023/05/31 03:00:53;;;;;;;7.15;2.53;;;;;;;9.91;53.71;96388.44;2088965;28;20108;-62
2023/05/31 03:01:59;;;;;;;4.40;2.28;;;;;;;9.96;53.27;96397.81;2081238;28;20074;-62
2023/05/31 03:03:00;;;;;;;7.18;2.20;;;;;;;9.96;53.15;96390.03;2088935;28;20057;-62
2023/05/31 03:04:18;;;;;;;6.68;2.28;;;;;;;10.02;53.14;96392.38;2089371;28;20484;-62
2023/05/31 03:05:20;;;;;;;8.13;2.35;;;;;;;10.03;53.19;96405.31;2089449;28;20045;-62
2023/05/31 03:06:21;;;;;;;4.78;2.10;;;;;;;10.14;52.54;96389.31;2081097;28;20065;-62
2023/05/31 03:07:22;;;;;;;5.80;2.30;;;;;;;10.18;52.72;96388.28;2080959;28;20057;-62
2023/05/31 03:08:24;;;;;;;5.93;2.55;;;;;;;10.15;52.25;96384.06;2080397;28;20523;-62
2023/05/31 03:09:26;;;;;;;5.97;2.60;;;;;;;10.16;52.54;96388.38;2088774;28;20057;-62
2023/05/31 03:10:29;;;;;;;5.57;2.25;;;;;;;10.08;52.39;96374.00;2089356;28;20052;-62
2023/05/31 03:11:30;;;;;;;4.53;2.35;;;;;;;10.06;52.58;96389.63;2088784;28;20052;-62
2023/05/31 03:12:31;;;;;;;8.60;2.38;;;;;;;10.03;53.39;96394.94;2080871;28;20072;-62
2023/05/31 03:13:32;;;;;;;5.00;2.33;;;;;;;9.90;53.52;96379.00;2089375;28;20107;-62
2023/05/31 03:14:33;;;;;;;4.65;2.17;;;;;;;9.93;53.41;96391.00;2090228;28;20056;-62
2023/05/31 03:15:35;;;;;;;4.88;2.38;;;;;;;9.92;53.65;96391.91;2088566;28;20048;-62
2023/05/31 03:16:36;;;;;;;6.38;2.38;;;;;;;9.89;54.21;96390.28;2080766;28;20156;-62
2023/05/31 03:17:38;;;;;;;4.57;2.20;;;;;;;9.84;54.52;96394.78;2080854;28;20485;-62
2023/05/31 03:18:39;;;;;;;4.47;2.30;;;;;;;9.81;54.41;96394.91;2089184;28;20052;-62
2023/05/31 03:19:40;;;;;;;10.35;2.70;;;;;;;9.77;54.44;96390.72;2080492;28;20057;-62
2023/05/31 03:20:41;;;;;;;6.57;2.50;;;;;;;9.73;54.61;96389.19;2080361;28;20053;-62
2023/05/31 03:21:42;;;;;;;5.30;2.05;;;;;;;9.68;54.92;96399.72;2089481;28;20045;-62
2023/05/31 03:22:43;;;;;;;4.85;2.50;;;;;;;9.67;54.82;96395.41;2088719;28;20129;-62
2023/05/31 03:23:46;;;;;;;10.32;2.78;;;;;;;9.67;54.96;96400.59;2089166;28;20516;-62
2023/05/31 03:24:47;;;;;;;6.35;2.30;;;;;;;9.66;54.91;96392.88;2080558;28;20053;-62
2023/05/31 03:25:51;;;;;;;4.93;2.38;;;;;;;9.69;54.94;96396.19;2081457;28;20060;-62
2023/05/31 03:26:54;;;;;;;5.18;2.30;;;;;;;9.65;54.59;96393.78;2089147;28;20136;-62
2023/05/31 03:27:57;;;;;;;7.43;2.33;;;;;;;9.64;54.59;96399.88;2080631;28;20049;-62
2023/05/31 03:28:58;;;;;;;5.90;2.55;;;;;;;9.62;55.02;96405.13;2080609;28;20060;-62
2023/05/31 03:30:00;;;;;;;6.45;2.35;;;;;;;9.62;55.18;96396.47;2080177;28;20529;-61
2023/05/31 03:31:01;;;;;;;6.75;2.40;;;;;;;9.57;55.55;96404.47;2089249;28;20041;-62
2023/05/31 03:32:03;;;;;;;5.95;2.25;;;;;;;9.54;55.45;96398.50;2089035;28;20045;-62
2023/05/31 03:33:04;;;;;;;5.88;1.95;;;;;;;9.49;55.58;96404.72;2080541;28;20429;-62
2023/05/31 03:34:06;;;;;;;8.57;2.65;;;;;;;9.45;56.31;96397.13;2080150;28;20409;-62
2023/05/31 03:35:07;;;;;;;4.90;2.28;;;;;;;9.48;55.87;96397.84;2088841;28;20056;-62
2023/05/31 03:36:09;;;;;;;4.50;2.28;;;;;;;9.47;56.18;96393.56;2089008;28;20049;-62
2023/05/31 03:37:10;;;;;;;6.75;2.80;;;;;;;9.35;56.15;96375.00;2080418;28;20045;-62
2023/05/31 03:38:20;;;;;;;9.95;2.60;;;;;;;9.57;56.02;96396.69;2081500;28;20164;-62
2023/05/31 03:39:21;;;;;;;7.40;2.30;;;;;;;9.52;56.02;96382.19;2089067;28;20063;-62
2023/05/31 03:40:22;;;;;;;5.00;2.38;;;;;;;9.62;56.08;96399.06;2089916;28;20051;-61
2023/05/31 03:41:23;;;;;;;7.63;2.90;;;;;;;9.59;56.18;96399.19;2089809;28;20036;-62
2023/05/31 03:42:24;;;;;;;5.80;2.33;;;;;;;9.65;56.33;96396.38;2089367;28;20097;-62
2023/05/31 03:43:26;;;;;;;7.35;2.95;;;;;;;9.62;55.63;96383.53;2087989;28;20071;-62
2023/05/31 03:44:28;;;;;;;5.75;2.33;;;;;;;9.69;55.67;96392.78;2080293;28;20053;-62
2023/05/31 03:45:29;;;;;;;7.20;2.50;;;;;;;9.73;55.40;96391.78;2080532;28;20057;-62
2023/05/31 03:46:31;;;;;;;5.72;2.67;;;;;;;9.78;55.23;96392.41;2079983;28;20068;-62
2023/05/31 03:47:32;;;;;;;4.50;2.20;;;;;;;9.75;55.39;96395.13;2088308;28;20076;-62
2023/05/31 03:48:34;;;;;;;6.60;2.72;;;;;;;9.74;55.51;96393.44;2088765;28;20132;-62
2023/05/31 03:49:35;;;;;;;6.80;2.80;;;;;;;9.80;55.27;96393.22;2080472;28;20055;-62
2023/05/31 03:50:40;;;;;;;7.05;2.45;;;;;;;9.62;55.56;96370.56;2088806;28;20053;-62
2023/05/31 03:51:41;;;;;;;4.53;2.40;;;;;;;9.77;55.47;96390.72;2089271;28;20131;-62
2023/05/31 03:52:42;;;;;;;7.10;2.58;;;;;;;9.77;55.80;96392.50;2089381;28;20049;-62
2023/05/31 03:53:43;;;;;;;7.75;2.45;;;;;;;9.83;55.80;96395.69;2089384;28;20057;-62
2023/05/31 03:54:46;;;;;;;7.78;2.58;;;;;;;9.81;56.18;96399.22;2088627;28;20059;-62
2023/05/31 03:55:47;;;;;;;8.52;2.70;;;;;;;9.79;56.49;96396.72;2080874;28;20057;-62
2023/05/31 03:56:49;;;;;;;4.43;2.30;;;;;;;9.82;56.39;96390.56;2080808;28;20544;-62
2023/05/31 03:57:50;;;;;;;5.95;2.10;;;;;;;9.82;56.16;96396.59;2088621;28;20053;-62
2023/05/31 03:58:52;;;;;;;8.02;2.40;;;;;;;9.82;56.22;96400.94;2080537;28;20049;-61
2023/05/31 03:59:55;;;;;;;10.05;2.78;;;;;;;9.82;56.25;96395.75;2080490;28;20056;-62
2023/05/31 04:00:56;;;;;;;6.10;2.15;;;;;;;9.84;55.85;96389.59;2088836;28;20108;-62
2023/05/31 04:01:58;;;;;;;10.63;2.70;;;;;;;9.84;56.07;96388.78;2088911;28;20048;-62
2023/05/31 04:03:00;;;;;;;4.63;2.10;;;;;;;9.83;55.67;96377.53;2088425;28;20049;-62
2023/05/31 04:04:01;;;;;;;6.32;2.40;;;;;;;9.79;55.87;96381.16;2080740;28;20458;-62
2023/05/31 04:05:04;;;;;;;6.95;2.90;;;;;;;9.92;55.67;96392.75;2080468;28;20175;-62
2023/05/31 04:06:05;;;;;;;5.35;2.33;;;;;;;9.92;55.52;96392.75;2088750;28;20053;-62
2023/05/31 04:07:06;;;;;;;7.10;2.65;;;;;;;9.91;56.17;96393.63;2088196;28;20480;-62
2023/05/31 04:08:07;;;;;;;5.88;2.10;;;;;;;9.93;56.04;96397.03;2080207;28;20049;-62
2023/05/31 04:09:08;;;;;;;5.88;2.33;;;;;;;9.96;56.02;96392.63;2072570;28;20067;-62
2023/05/31 04:10:09;;;;;;;9.55;2.55;;;;;;;9.98;56.18;96396.03;2081058;28;20049;-59
2023/05/31 04:11:11;;;;;;;3.75;2.13;;;;;;;9.99;55.68;96398.53;2088208;28;20056;-59
2023/05/31 04:12:12;;;;;;;7.68;2.40;;;;;;;10.03;55.07;96401.88;2080377;28;20104;-59
2023/05/31 04:13:13;;;;;;;8.93;2.30;;;;;;;10.06;55.30;96401.75;2088725;28;20420;-59
2023/05/31 04:14:14;;;;;;;6.95;2.45;;;;;;;10.09;55.50;96393.84;2080759;28;20548;-60
2023/05/31 04:15:15;;;;;;;7.32;2.35;;;;;;;10.08;55.87;96403.38;2080899;28;20064;-59
2023/05/31 04:16:16;;;;;;;5.13;2.25;;;;;;;10.11;55.89;96407.63;2081130;28;20390;-59
2023/05/31 04:17:17;;;;;;;7.78;2.55;;;;;;;10.15;55.52;96396.19;2088637;28;20541;-59
2023/05/31 04:18:19;;;;;;;5.28;2.58;;;;;;;10.16;55.63;96401.34;2088231;28;20049;-59
2023/05/31 04:19:20;;;;;;;5.90;2.30;;;;;;;10.20;55.61;96401.22;2088766;28;20056;-59
2023/05/31 04:20:22;;;;;;;6.55;2.50;;;;;;;10.13;54.69;96383.28;2088329;28;20049;-59
2023/05/31 04:21:24;;;;;;;8.13;2.50;;;;;;;10.26;55.38;96404.41;2089011;28;20049;-59
2023/05/31 04:22:25;;;;;;;8.20;2.35;;;;;;;10.31;54.63;96405.09;2088972;28;20048;-59
2023/05/31 04:23:26;;;;;;;6.28;2.47;;;;;;;10.36;54.93;96413.56;2088553;28;20512;-59
2023/05/31 04:24:27;;;;;;;6.43;2.28;;;;;;;10.39;54.43;96407.38;2088294;28;20068;-59
2023/05/31 04:25:28;;;;;;;9.43;2.55;;;;;;;10.44;54.73;96407.22;2089089;28;20048;-59
2023/05/31 04:26:32;;;;;;;7.03;2.28;;;;;;;10.50;54.49;96404.38;2088237;28;20056;-59
2023/05/31 04:27:33;;;;;;;4.40;2.38;;;;;;;10.48;53.76;96394.06;2080954;28;20057;-59
2023/05/31 04:28:35;;;;;;;6.43;2.20;;;;;;;10.59;54.19;96414.41;2080700;28;20045;-59
2023/05/31 04:29:36;;;;;;;6.88;2.42;;;;;;;10.65;54.08;96414.13;2080237;28;20100;-59
2023/05/31 04:30:39;;;;;;;7.05;2.72;;;;;;;10.68;53.41;96410.56;2080302;28;20060;-59
2023/05/31 04:31:40;;;;;;;4.82;2.47;;;;;;;10.67;53.94;96398.50;2088647;28;20052;-59
2023/05/31 04:32:41;;;;;;;5.60;2.38;;;;;;;10.72;54.16;96405.19;2080197;28;20049;-59
2023/05/31 04:33:44;;;;;;;6.82;2.78;;;;;;;10.74;54.38;96400.75;2072565;28;20153;-59
2023/05/31 04:34:45;;;;;;;6.88;2.40;;;;;;;10.76;53.77;96406.75;2080124;28;20053;-58
2023/05/31 04:35:46;;;;;;;5.07;2.17;;;;;;;10.77;54.30;96403.25;2080909;28;20080;-59
2023/05/31 04:36:48;;;;;;;4.07;2.15;;;;;;;10.79;53.69;96398.81;2088525;28;20064;-59
2023/05/31 04:37:58;;;;;;;8.98;2.60;;;;;;;10.84;54.83;96403.00;2088602;28;20053;-59
2023/05/31 04:39:00;;;;;;;6.05;2.08;;;;;;;10.89;54.54;96403.66;2080907;28;20053;-59
2023/05/31 04:40:05;;;;;;;7.03;2.40;;;;;;;10.93;54.35;96402.59;2081020;28;20510;-59
2023/05/31 04:41:07;;;;;;;5.28;2.35;;;;;;;10.95;53.95;96406.81;2088272;28;20041;-58
2023/05/31 04:42:11;;;;;;;6.03;2.30;;;;;;;10.88;53.56;96382.03;2080264;28;20045;-59
2023/05/31 04:43:12;;;;;;;5.82;2.42;;;;;;;11.00;53.46;96404.03;2080441;28;20041;-59
2023/05/31 04:44:13;;;;;;;5.43;2.15;;;;;;;10.97;52.88;96397.22;2080868;28;20049;-59
2023/05/31 04:45:15;;;;;;;5.78;2.95;;;;;;;11.07;52.94;96402.88;2080589;28;20042;-59
2023/05/31 04:46:24;;;;;;;10.77;2.45;;;;;;;11.01;53.43;96392.72;2080854;28;20053;-59
2023/05/31 04:47:28;;;;;;;6.35;2.38;;;;;;;11.10;53.57;96405.34;2080389;28;20064;-59
2023/05/31 04:48:29;;;;;;;7.28;2.60;;;;;;;11.15;53.09;96406.00;2088272;28;20060;-59
2023/05/31 04:49:33;;;;;;;7.20;2.70;;;;;;;11.23;53.11;96414.31;2088121;28;20440;-59
2023/05/31 04:50:34;;;;;;;8.82;2.58;;;;;;;11.28;53.09;96408.91;2080556;28;20056;-59
2023/05/31 04:51:35;;;;;;;5.60;2.70;;;;;;;11.17;53.47;96388.56;2080661;28;20052;-59
2023/05/31 04:52:39;;;;;;;5.60;2.17;;;;;;;11.30;53.82;96403.63;2080108;28;20061;-59
2023/05/31 04:53:41;;;;;;;5.15;2.50;;;;;;;11.30;53.20;96401.03;2080823;28;20501;-59
2023/05/31 04:54:42;;;;;;;8.77;3.05;;;;;;;11.32;53.25;96399.22;2079962;28;20049;-59
2023/05/31 04:55:43;;;;;;;7.70;2.55;;;;;;;11.33;53.15;96406.09;2082034;28;20041;-59